Metamora, IN

2:05 AM EDT on October 01, 2014 (GMT -0400)
Laurel School | Change Station
CLOSE
Current Station
Personal Weather Station
Location: Laurel, IN
Elevation: 725 ft
Nearby Weather Stations

Elev 725 ft 39.50 °N, 85.20 °W | Updated 10 minutes ago

Clear
Clear
46.0 °F
Feels Like 46 °F
N
0.0
Wind Variable Wind from ENE
Gusts 0.0 mph

Today
High -- | Low -- °F
--% Chance of Precip.
Yesterday
High -- | Low -- °F
Precip. -- in
7:36 AM 7:23 PM
Waxing Crescent, 44% visible
Pressure 30.01 in
Visibility 10.0 miles
Clouds Few 3600 ft
Windchill 46 °F
Dew Point 45 °F
Humidity 95%
Rainfall 0.00 in
Snow Depth Not available.
UV 0.0 out of 12
Pollen 3.50 out of 12
Air Quality Not available.
Flu Activity Not available.
METAR KHAO 010553Z AUTO 00000KT 10SM FEW036 08/07 A3002 RMK AO2 SLP163 T00780072 10156 20078 52005

More Conditions Fewer Conditions

Pressure 30.01 in
Visibility 10.0 miles
Clouds Few 3600 ft
Windchill 46 °F
Dew Point 45 °F
Humidity 95%
Rainfall 0.00 in
Snow Depth Not available.
UV 0.0 out of 12
Pollen 3.50 out of 12
Air Quality Not available.
Flu Activity Not available.
METAR KHAO 010553Z AUTO 00000KT 10SM FEW036 08/07 A3002 RMK AO2 SLP163 T00780072 10156 20078 52005

More Conditions Fewer Conditions

10-Day Weather Forecast

Almanac

Astronomy

Oct. 01, 2014 Rise Set
Actual Time 7:36 AM EDT 7:23 PM EDT
Civil Twilight 7:09 AM EDT 7:49 PM EDT
Nautical Twilight 6:38 AM EDT 8:20 PM EDT
Astronomical Twilight 6:07 AM EDT 8:52 PM EDT
Moon 2:35 PM EDT No Moon Set
Length of Visible Light 12h 39m
Length of Day
11h 46m
Tomorrow will be 2m 33s shorter.
Waxing Crescent, 44% of the Moon is Illuminated
Today
Waxing Crescent
Oct 1
First Quarter
Oct 8
Full
Oct 15
Last Quarter
Oct 23
New

Today's Extremes

State Highs State Lows

Community

WunderPhotos

Upload Photos

1,757,877 photos uploaded!

Nearby

Snow Depth

Station Depth Elevation
No new snow has been reported.

Earthquake Activity

City Distance Mag. Time & Date
No recent earthquake activity has been reported nearby.
Minimum magnitude displayed is 2.5.

Coastal Water Temperatures

Place Temperature
No Stations Reporting

Nearby Weather Stations